sensor_id;sensor_type;location;lat;lon;timestamp;P1;durP1;ratioP1;P2;durP2;ratioP2
74541;SDS011;63015;45.378;20.360;2023-04-03T00:02:00;6.63;;;3.67;;
74541;SDS011;63015;45.378;20.360;2023-04-03T00:04:01;7.95;;;4.78;;
74541;SDS011;63015;45.378;20.360;2023-04-03T00:06:02;6.80;;;3.97;;
74541;SDS011;63015;45.378;20.360;2023-04-03T00:08:03;7.53;;;3.50;;
74541;SDS011;63015;45.378;20.360;2023-04-03T00:10:04;5.95;;;3.80;;
74541;SDS011;63015;45.378;20.360;2023-04-03T00:12:05;8.07;;;4.03;;
74541;SDS011;63015;45.378;20.360;2023-04-03T00:14:06;8.88;;;3.70;;
74541;SDS011;63015;45.378;20.360;2023-04-03T00:16:07;8.10;;;4.55;;
74541;SDS011;63015;45.378;20.360;2023-04-03T00:18:09;7.13;;;3.75;;
74541;SDS011;63015;45.378;20.360;2023-04-03T00:20:10;7.35;;;4.05;;
74541;SDS011;63015;45.378;20.360;2023-04-03T00:22:10;7.15;;;4.13;;
74541;SDS011;63015;45.378;20.360;2023-04-03T00:24:11;7.95;;;4.00;;
74541;SDS011;63015;45.378;20.360;2023-04-03T00:26:11;6.57;;;3.83;;
74541;SDS011;63015;45.378;20.360;2023-04-03T00:28:13;7.45;;;4.20;;
74541;SDS011;63015;45.378;20.360;2023-04-03T00:30:15;7.07;;;4.07;;
74541;SDS011;63015;45.378;20.360;2023-04-03T00:32:17;6.95;;;3.88;;
74541;SDS011;63015;45.378;20.360;2023-04-03T00:34:18;6.85;;;3.80;;
74541;SDS011;63015;45.378;20.360;2023-04-03T00:36:19;8.07;;;4.07;;
74541;SDS011;63015;45.378;20.360;2023-04-03T00:38:20;6.90;;;3.70;;
74541;SDS011;63015;45.378;20.360;2023-04-03T00:40:21;7.60;;;4.07;;
74541;SDS011;63015;45.378;20.360;2023-04-03T00:42:24;7.85;;;3.88;;
74541;SDS011;63015;45.378;20.360;2023-04-03T00:46:28;6.90;;;5.03;;
74541;SDS011;63015;45.378;20.360;2023-04-03T00:48:30;8.00;;;4.10;;
74541;SDS011;63015;45.378;20.360;2023-04-03T00:50:41;8.30;;;4.22;;
74541;SDS011;63015;45.378;20.360;2023-04-03T00:52:43;7.72;;;3.90;;
74541;SDS011;63015;45.378;20.360;2023-04-03T00:54:47;9.13;;;4.97;;
74541;SDS011;63015;45.378;20.360;2023-04-03T00:56:51;7.10;;;4.57;;
74541;SDS011;63015;45.378;20.360;2023-04-03T00:58:57;8.02;;;3.88;;
74541;SDS011;63015;45.378;20.360;2023-04-03T01:01:03;6.57;;;3.75;;
74541;SDS011;63015;45.378;20.360;2023-04-03T01:03:06;9.27;;;4.97;;
74541;SDS011;63015;45.378;20.360;2023-04-03T01:05:09;6.72;;;4.07;;
74541;SDS011;63015;45.378;20.360;2023-04-03T01:07:21;10.02;;;4.38;;
74541;SDS011;63015;45.378;20.360;2023-04-03T01:09:24;7.18;;;4.30;;
74541;SDS011;63015;45.378;20.360;2023-04-03T01:11:24;7.40;;;4.25;;
74541;SDS011;63015;45.378;20.360;2023-04-03T01:13:27;6.13;;;3.58;;
74541;SDS011;63015;45.378;20.360;2023-04-03T01:15:30;5.22;;;3.10;;
74541;SDS011;63015;45.378;20.360;2023-04-03T01:22:15;8.65;;;3.90;;
74541;SDS011;63015;45.378;20.360;2023-04-03T01:24:35;7.10;;;3.80;;
74541;SDS011;63015;45.378;20.360;2023-04-03T01:26:41;6.18;;;3.65;;
74541;SDS011;63015;45.378;20.360;2023-04-03T01:28:41;6.18;;;3.40;;
74541;SDS011;63015;45.378;20.360;2023-04-03T01:32:43;7.00;;;3.83;;
74541;SDS011;63015;45.378;20.360;2023-04-03T01:34:44;9.15;;;4.63;;
74541;SDS011;63015;45.378;20.360;2023-04-03T01:36:44;8.57;;;4.07;;
74541;SDS011;63015;45.378;20.360;2023-04-03T01:38:45;8.05;;;4.15;;
74541;SDS011;63015;45.378;20.360;2023-04-03T01:40:46;8.07;;;4.25;;
74541;SDS011;63015;45.378;20.360;2023-04-03T01:42:47;8.38;;;3.80;;
74541;SDS011;63015;45.378;20.360;2023-04-03T01:44:47;7.25;;;2.92;;
74541;SDS011;63015;45.378;20.360;2023-04-03T01:46:48;8.32;;;3.45;;
74541;SDS011;63015;45.378;20.360;2023-04-03T01:48:48;8.73;;;4.25;;
74541;SDS011;63015;45.378;20.360;2023-04-03T01:50:50;9.18;;;4.00;;
74541;SDS011;63015;45.378;20.360;2023-04-03T01:52:52;9.07;;;4.13;;
74541;SDS011;63015;45.378;20.360;2023-04-03T01:54:52;8.02;;;3.65;;
74541;SDS011;63015;45.378;20.360;2023-04-03T01:56:53;8.23;;;3.20;;
74541;SDS011;63015;45.378;20.360;2023-04-03T01:58:55;9.07;;;3.70;;
74541;SDS011;63015;45.378;20.360;2023-04-03T02:00:56;9.80;;;4.47;;
74541;SDS011;63015;45.378;20.360;2023-04-03T02:02:56;8.65;;;3.85;;
74541;SDS011;63015;45.378;20.360;2023-04-03T02:04:57;5.97;;;2.42;;
74541;SDS011;63015;45.378;20.360;2023-04-03T02:06:57;8.80;;;3.78;;
74541;SDS011;63015;45.378;20.360;2023-04-03T02:08:58;11.20;;;4.65;;
74541;SDS011;63015;45.378;20.360;2023-04-03T02:10:59;8.40;;;3.97;;
74541;SDS011;63015;45.378;20.360;2023-04-03T02:13:00;9.30;;;3.85;;
74541;SDS011;63015;45.378;20.360;2023-04-03T02:15:00;9.88;;;4.40;;
74541;SDS011;63015;45.378;20.360;2023-04-03T02:17:01;10.77;;;5.88;;
74541;SDS011;63015;45.378;20.360;2023-04-03T02:19:05;10.52;;;4.80;;
74541;SDS011;63015;45.378;20.360;2023-04-03T02:21:06;9.23;;;4.22;;
74541;SDS011;63015;45.378;20.360;2023-04-03T02:23:06;11.10;;;4.00;;
74541;SDS011;63015;45.378;20.360;2023-04-03T02:25:07;6.47;;;2.92;;
74541;SDS011;63015;45.378;20.360;2023-04-03T02:27:08;9.82;;;4.90;;
74541;SDS011;63015;45.378;20.360;2023-04-03T02:29:08;10.18;;;4.53;;
74541;SDS011;63015;45.378;20.360;2023-04-03T02:31:09;8.35;;;3.80;;
74541;SDS011;63015;45.378;20.360;2023-04-03T02:33:11;9.85;;;4.88;;
74541;SDS011;63015;45.378;20.360;2023-04-03T02:35:13;7.07;;;2.85;;
74541;SDS011;63015;45.378;20.360;2023-04-03T02:37:14;8.75;;;4.22;;
74541;SDS011;63015;45.378;20.360;2023-04-03T02:39:16;6.70;;;2.88;;
74541;SDS011;63015;45.378;20.360;2023-04-03T02:41:18;6.70;;;2.63;;
74541;SDS011;63015;45.378;20.360;2023-04-03T02:43:18;5.10;;;2.13;;
74541;SDS011;63015;45.378;20.360;2023-04-03T02:45:19;6.13;;;2.47;;
74541;SDS011;63015;45.378;20.360;2023-04-03T02:47:19;6.28;;;3.10;;
74541;SDS011;63015;45.378;20.360;2023-04-03T02:49:22;6.57;;;2.90;;
74541;SDS011;63015;45.378;20.360;2023-04-03T02:51:22;6.68;;;2.85;;
74541;SDS011;63015;45.378;20.360;2023-04-03T02:53:23;6.68;;;2.20;;
74541;SDS011;63015;45.378;20.360;2023-04-03T02:55:24;6.75;;;2.80;;
74541;SDS011;63015;45.378;20.360;2023-04-03T02:57:28;8.10;;;3.55;;
74541;SDS011;63015;45.378;20.360;2023-04-03T02:59:28;6.32;;;3.15;;
74541;SDS011;63015;45.378;20.360;2023-04-03T03:01:29;7.68;;;3.10;;
74541;SDS011;63015;45.378;20.360;2023-04-03T03:03:32;8.75;;;2.95;;
74541;SDS011;63015;45.378;20.360;2023-04-03T03:05:32;4.13;;;1.50;;
74541;SDS011;63015;45.378;20.360;2023-04-03T03:07:33;5.90;;;2.28;;
74541;SDS011;63015;45.378;20.360;2023-04-03T03:09:34;9.20;;;3.10;;
74541;SDS011;63015;45.378;20.360;2023-04-03T03:11:35;8.05;;;3.28;;
74541;SDS011;63015;45.378;20.360;2023-04-03T03:13:36;5.38;;;2.55;;
74541;SDS011;63015;45.378;20.360;2023-04-03T03:15:37;4.10;;;2.00;;
74541;SDS011;63015;45.378;20.360;2023-04-03T03:17:37;4.45;;;1.98;;
74541;SDS011;63015;45.378;20.360;2023-04-03T03:19:38;7.47;;;2.33;;
74541;SDS011;63015;45.378;20.360;2023-04-03T03:21:39;5.05;;;2.53;;
74541;SDS011;63015;45.378;20.360;2023-04-03T03:23:39;4.38;;;1.50;;
74541;SDS011;63015;45.378;20.360;2023-04-03T03:25:40;6.35;;;2.10;;
74541;SDS011;63015;45.378;20.360;2023-04-03T03:27:41;5.07;;;2.15;;
74541;SDS011;63015;45.378;20.360;2023-04-03T03:29:42;5.15;;;2.35;;
74541;SDS011;63015;45.378;20.360;2023-04-03T03:31:43;6.38;;;2.47;;
74541;SDS011;63015;45.378;20.360;2023-04-03T03:33:44;5.22;;;2.08;;
74541;SDS011;63015;45.378;20.360;2023-04-03T03:35:45;8.48;;;2.40;;
74541;SDS011;63015;45.378;20.360;2023-04-03T03:37:45;6.72;;;1.95;;
74541;SDS011;63015;45.378;20.360;2023-04-03T03:39:46;6.45;;;2.60;;
74541;SDS011;63015;45.378;20.360;2023-04-03T03:41:47;6.10;;;2.50;;
74541;SDS011;63015;45.378;20.360;2023-04-03T03:43:50;6.50;;;2.83;;
74541;SDS011;63015;45.378;20.360;2023-04-03T03:45:51;5.38;;;2.60;;
74541;SDS011;63015;45.378;20.360;2023-04-03T03:47:52;4.57;;;1.83;;
74541;SDS011;63015;45.378;20.360;2023-04-03T03:49:53;5.55;;;2.08;;
74541;SDS011;63015;45.378;20.360;2023-04-03T03:51:54;3.40;;;1.13;;
74541;SDS011;63015;45.378;20.360;2023-04-03T03:53:55;7.32;;;2.78;;
74541;SDS011;63015;45.378;20.360;2023-04-03T03:55:56;4.80;;;1.75;;
74541;SDS011;63015;45.378;20.360;2023-04-03T03:57:59;5.97;;;2.35;;
74541;SDS011;63015;45.378;20.360;2023-04-03T04:00:03;5.65;;;2.10;;
74541;SDS011;63015;45.378;20.360;2023-04-03T04:02:04;4.05;;;1.70;;
74541;SDS011;63015;45.378;20.360;2023-04-03T04:04:05;4.57;;;1.30;;
74541;SDS011;63015;45.378;20.360;2023-04-03T04:06:06;3.35;;;1.20;;
74541;SDS011;63015;45.378;20.360;2023-04-03T04:08:06;4.38;;;1.58;;
74541;SDS011;63015;45.378;20.360;2023-04-03T04:10:07;3.70;;;1.52;;
74541;SDS011;63015;45.378;20.360;2023-04-03T04:12:09;3.47;;;0.95;;
74541;SDS011;63015;45.378;20.360;2023-04-03T04:14:11;4.82;;;1.60;;
74541;SDS011;63015;45.378;20.360;2023-04-03T04:16:13;5.20;;;1.25;;
74541;SDS011;63015;45.378;20.360;2023-04-03T04:18:14;4.78;;;2.15;;
74541;SDS011;63015;45.378;20.360;2023-04-03T04:20:17;5.47;;;2.80;;
74541;SDS011;63015;45.378;20.360;2023-04-03T04:22:18;5.28;;;1.98;;
74541;SDS011;63015;45.378;20.360;2023-04-03T04:24:18;4.53;;;2.08;;
74541;SDS011;63015;45.378;20.360;2023-04-03T04:26:20;4.85;;;2.00;;
74541;SDS011;63015;45.378;20.360;2023-04-03T04:28:21;4.78;;;2.20;;
74541;SDS011;63015;45.378;20.360;2023-04-03T04:32:27;5.45;;;2.25;;
74541;SDS011;63015;45.378;20.360;2023-04-03T04:34:27;5.90;;;2.60;;
74541;SDS011;63015;45.378;20.360;2023-04-03T04:36:29;5.45;;;1.95;;
74541;SDS011;63015;45.378;20.360;2023-04-03T04:38:29;4.75;;;1.88;;
74541;SDS011;63015;45.378;20.360;2023-04-03T04:40:30;3.97;;;1.75;;
74541;SDS011;63015;45.378;20.360;2023-04-03T04:42:32;4.20;;;1.80;;
74541;SDS011;63015;45.378;20.360;2023-04-03T04:44:33;3.25;;;1.38;;
74541;SDS011;63015;45.378;20.360;2023-04-03T04:46:34;3.38;;;1.33;;
74541;SDS011;63015;45.378;20.360;2023-04-03T04:48:35;4.68;;;1.90;;
74541;SDS011;63015;45.378;20.360;2023-04-03T04:50:37;4.40;;;1.75;;
74541;SDS011;63015;45.378;20.360;2023-04-03T04:52:38;3.45;;;1.23;;
74541;SDS011;63015;45.378;20.360;2023-04-03T04:54:40;2.83;;;1.05;;
74541;SDS011;63015;45.378;20.360;2023-04-03T04:56:41;4.25;;;1.30;;
74541;SDS011;63015;45.378;20.360;2023-04-03T04:58:41;4.13;;;1.88;;
74541;SDS011;63015;45.378;20.360;2023-04-03T05:00:42;5.03;;;1.88;;
74541;SDS011;63015;45.378;20.360;2023-04-03T05:02:44;4.30;;;1.50;;
74541;SDS011;63015;45.378;20.360;2023-04-03T05:04:45;2.47;;;0.88;;
74541;SDS011;63015;45.378;20.360;2023-04-03T05:06:52;4.20;;;1.45;;
74541;SDS011;63015;45.378;20.360;2023-04-03T05:08:57;4.78;;;1.70;;
74541;SDS011;63015;45.378;20.360;2023-04-03T05:10:58;3.90;;;1.50;;
74541;SDS011;63015;45.378;20.360;2023-04-03T05:13:00;2.65;;;1.05;;
74541;SDS011;63015;45.378;20.360;2023-04-03T05:15:02;5.15;;;1.63;;
74541;SDS011;63015;45.378;20.360;2023-04-03T05:17:04;3.35;;;1.08;;
74541;SDS011;63015;45.378;20.360;2023-04-03T05:19:08;3.20;;;1.23;;
74541;SDS011;63015;45.378;20.360;2023-04-03T05:21:09;2.80;;;0.93;;
74541;SDS011;63015;45.378;20.360;2023-04-03T05:23:10;4.10;;;1.70;;
74541;SDS011;63015;45.378;20.360;2023-04-03T05:25:11;3.72;;;1.33;;
74541;SDS011;63015;45.378;20.360;2023-04-03T05:27:14;2.83;;;1.05;;
74541;SDS011;63015;45.378;20.360;2023-04-03T05:29:20;4.38;;;1.65;;
74541;SDS011;63015;45.378;20.360;2023-04-03T05:31:22;2.00;;;0.68;;
74541;SDS011;63015;45.378;20.360;2023-04-03T05:33:23;4.57;;;1.60;;
74541;SDS011;63015;45.378;20.360;2023-04-03T05:35:26;5.00;;;1.58;;
74541;SDS011;63015;45.378;20.360;2023-04-03T05:37:30;3.47;;;1.25;;
74541;SDS011;63015;45.378;20.360;2023-04-03T05:39:32;5.10;;;1.88;;
74541;SDS011;63015;45.378;20.360;2023-04-03T05:43:36;2.97;;;1.00;;
74541;SDS011;63015;45.378;20.360;2023-04-03T05:45:39;4.10;;;1.38;;
74541;SDS011;63015;45.378;20.360;2023-04-03T05:47:39;2.95;;;1.02;;
74541;SDS011;63015;45.378;20.360;2023-04-03T05:49:41;3.67;;;1.90;;
74541;SDS011;63015;45.378;20.360;2023-04-03T05:51:43;3.28;;;0.90;;
74541;SDS011;63015;45.378;20.360;2023-04-03T05:53:57;3.80;;;1.50;;
74541;SDS011;63015;45.378;20.360;2023-04-03T05:56:18;3.17;;;0.90;;
74541;SDS011;63015;45.378;20.360;2023-04-03T05:58:18;4.38;;;1.42;;
74541;SDS011;63015;45.378;20.360;2023-04-03T06:00:21;3.47;;;1.10;;
74541;SDS011;63015;45.378;20.360;2023-04-03T06:02:30;6.60;;;1.50;;
74541;SDS011;63015;45.378;20.360;2023-04-03T06:04:32;3.83;;;1.58;;
74541;SDS011;63015;45.378;20.360;2023-04-03T06:09:02;2.85;;;1.27;;
74541;SDS011;63015;45.378;20.360;2023-04-03T06:11:03;5.50;;;1.23;;
74541;SDS011;63015;45.378;20.360;2023-04-03T06:13:03;3.17;;;1.27;;
74541;SDS011;63015;45.378;20.360;2023-04-03T06:15:04;2.92;;;1.10;;
74541;SDS011;63015;45.378;20.360;2023-04-03T06:17:07;4.20;;;1.25;;
74541;SDS011;63015;45.378;20.360;2023-04-03T06:19:09;2.15;;;0.68;;
74541;SDS011;63015;45.378;20.360;2023-04-03T06:21:14;2.67;;;0.88;;
74541;SDS011;63015;45.378;20.360;2023-04-03T06:23:14;3.03;;;1.45;;
74541;SDS011;63015;45.378;20.360;2023-04-03T06:25:15;2.90;;;0.90;;
74541;SDS011;63015;45.378;20.360;2023-04-03T06:27:17;3.05;;;1.15;;
74541;SDS011;63015;45.378;20.360;2023-04-03T06:29:18;3.40;;;1.10;;
74541;SDS011;63015;45.378;20.360;2023-04-03T06:31:20;2.65;;;0.80;;
74541;SDS011;63015;45.378;20.360;2023-04-03T06:33:27;3.80;;;1.58;;
74541;SDS011;63015;45.378;20.360;2023-04-03T06:35:28;4.13;;;1.25;;
74541;SDS011;63015;45.378;20.360;2023-04-03T06:37:32;2.92;;;0.98;;
74541;SDS011;63015;45.378;20.360;2023-04-03T06:39:33;3.30;;;1.02;;
74541;SDS011;63015;45.378;20.360;2023-04-03T06:41:33;5.82;;;1.33;;
74541;SDS011;63015;45.378;20.360;2023-04-03T06:43:36;2.80;;;1.17;;
74541;SDS011;63015;45.378;20.360;2023-04-03T06:45:36;1.88;;;0.57;;
74541;SDS011;63015;45.378;20.360;2023-04-03T06:47:37;3.03;;;0.80;;
74541;SDS011;63015;45.378;20.360;2023-04-03T06:49:37;4.40;;;1.60;;
74541;SDS011;63015;45.378;20.360;2023-04-03T06:51:38;2.72;;;0.90;;
74541;SDS011;63015;45.378;20.360;2023-04-03T06:53:38;2.63;;;0.90;;
74541;SDS011;63015;45.378;20.360;2023-04-03T06:55:39;3.83;;;1.08;;
74541;SDS011;63015;45.378;20.360;2023-04-03T06:57:39;2.53;;;0.95;;
74541;SDS011;63015;45.378;20.360;2023-04-03T06:59:40;3.05;;;1.30;;
74541;SDS011;63015;45.378;20.360;2023-04-03T07:01:41;4.93;;;1.45;;
74541;SDS011;63015;45.378;20.360;2023-04-03T07:03:42;2.53;;;0.93;;
74541;SDS011;63015;45.378;20.360;2023-04-03T07:05:42;1.92;;;0.68;;
74541;SDS011;63015;45.378;20.360;2023-04-03T07:07:44;3.13;;;1.30;;
74541;SDS011;63015;45.378;20.360;2023-04-03T07:09:45;3.05;;;0.82;;
74541;SDS011;63015;45.378;20.360;2023-04-03T07:11:48;3.63;;;1.25;;
74541;SDS011;63015;45.378;20.360;2023-04-03T07:13:48;2.13;;;0.80;;
74541;SDS011;63015;45.378;20.360;2023-04-03T07:15:49;2.50;;;1.10;;
74541;SDS011;63015;45.378;20.360;2023-04-03T07:17:50;4.93;;;1.13;;
74541;SDS011;63015;45.378;20.360;2023-04-03T07:19:50;2.70;;;1.08;;
74541;SDS011;63015;45.378;20.360;2023-04-03T07:21:51;2.25;;;0.63;;
74541;SDS011;63015;45.378;20.360;2023-04-03T07:23:52;2.22;;;0.70;;
74541;SDS011;63015;45.378;20.360;2023-04-03T07:25:52;3.28;;;0.80;;
74541;SDS011;63015;45.378;20.360;2023-04-03T07:27:54;2.90;;;0.95;;
74541;SDS011;63015;45.378;20.360;2023-04-03T07:29:55;4.68;;;1.33;;
74541;SDS011;63015;45.378;20.360;2023-04-03T07:31:56;4.38;;;1.20;;
74541;SDS011;63015;45.378;20.360;2023-04-03T07:33:56;3.65;;;1.70;;
74541;SDS011;63015;45.378;20.360;2023-04-03T07:35:57;3.25;;;1.27;;
74541;SDS011;63015;45.378;20.360;2023-04-03T07:37:58;3.25;;;1.00;;
74541;SDS011;63015;45.378;20.360;2023-04-03T07:39:58;3.67;;;1.25;;
74541;SDS011;63015;45.378;20.360;2023-04-03T07:42:00;3.88;;;1.50;;
74541;SDS011;63015;45.378;20.360;2023-04-03T07:44:00;3.25;;;0.90;;
74541;SDS011;63015;45.378;20.360;2023-04-03T07:46:01;2.60;;;0.80;;
74541;SDS011;63015;45.378;20.360;2023-04-03T07:48:05;3.10;;;0.90;;
74541;SDS011;63015;45.378;20.360;2023-04-03T07:50:06;3.95;;;1.00;;
74541;SDS011;63015;45.378;20.360;2023-04-03T07:52:07;4.50;;;1.23;;
74541;SDS011;63015;45.378;20.360;2023-04-03T07:54:09;3.25;;;1.10;;
74541;SDS011;63015;45.378;20.360;2023-04-03T07:56:09;3.17;;;1.17;;
74541;SDS011;63015;45.378;20.360;2023-04-03T07:58:11;3.10;;;1.45;;
74541;SDS011;63015;45.378;20.360;2023-04-03T08:00:13;4.55;;;1.58;;
74541;SDS011;63015;45.378;20.360;2023-04-03T08:02:15;3.83;;;1.25;;
74541;SDS011;63015;45.378;20.360;2023-04-03T08:04:15;3.50;;;1.25;;
74541;SDS011;63015;45.378;20.360;2023-04-03T08:06:16;3.25;;;1.30;;
74541;SDS011;63015;45.378;20.360;2023-04-03T08:08:17;3.83;;;1.50;;
74541;SDS011;63015;45.378;20.360;2023-04-03T08:10:20;3.85;;;1.10;;
74541;SDS011;63015;45.378;20.360;2023-04-03T08:12:21;4.07;;;1.25;;
74541;SDS011;63015;45.378;20.360;2023-04-03T08:14:21;5.60;;;1.83;;
74541;SDS011;63015;45.378;20.360;2023-04-03T08:16:22;7.32;;;1.70;;
74541;SDS011;63015;45.378;20.360;2023-04-03T08:18:26;3.33;;;1.08;;
74541;SDS011;63015;45.378;20.360;2023-04-03T08:20:28;3.15;;;0.95;;
74541;SDS011;63015;45.378;20.360;2023-04-03T08:22:29;3.17;;;0.90;;
74541;SDS011;63015;45.378;20.360;2023-04-03T08:24:29;3.10;;;1.15;;
74541;SDS011;63015;45.378;20.360;2023-04-03T08:26:30;2.97;;;1.02;;
74541;SDS011;63015;45.378;20.360;2023-04-03T08:28:31;4.40;;;1.52;;
74541;SDS011;63015;45.378;20.360;2023-04-03T08:30:31;3.08;;;1.25;;
74541;SDS011;63015;45.378;20.360;2023-04-03T08:32:33;3.03;;;1.15;;
74541;SDS011;63015;45.378;20.360;2023-04-03T08:34:34;4.15;;;1.23;;
74541;SDS011;63015;45.378;20.360;2023-04-03T08:36:36;3.03;;;1.20;;
74541;SDS011;63015;45.378;20.360;2023-04-03T08:38:37;2.78;;;1.00;;
74541;SDS011;63015;45.378;20.360;2023-04-03T08:40:38;2.70;;;0.75;;
74541;SDS011;63015;45.378;20.360;2023-04-03T08:51:51;2.78;;;0.73;;
74541;SDS011;63015;45.378;20.360;2023-04-03T08:53:58;3.28;;;1.20;;
74541;SDS011;63015;45.378;20.360;2023-04-03T08:56:05;3.83;;;0.77;;
74541;SDS011;63015;45.378;20.360;2023-04-03T08:58:12;2.63;;;0.70;;
74541;SDS011;63015;45.378;20.360;2023-04-03T09:00:26;4.18;;;1.42;;
74541;SDS011;63015;45.378;20.360;2023-04-03T09:02:34;2.60;;;0.68;;
74541;SDS011;63015;45.378;20.360;2023-04-03T09:04:46;3.33;;;1.50;;
74541;SDS011;63015;45.378;20.360;2023-04-03T09:06:49;5.85;;;1.80;;
74541;SDS011;63015;45.378;20.360;2023-04-03T09:15:47;3.22;;;1.42;;
74541;SDS011;63015;45.378;20.360;2023-04-03T09:22:19;3.63;;;0.93;;
74541;SDS011;63015;45.378;20.360;2023-04-03T09:24:23;2.92;;;0.90;;
74541;SDS011;63015;45.378;20.360;2023-04-03T09:26:36;2.58;;;0.85;;
74541;SDS011;63015;45.378;20.360;2023-04-03T09:28:38;2.70;;;1.00;;
74541;SDS011;63015;45.378;20.360;2023-04-03T09:30:39;1.65;;;0.43;;
74541;SDS011;63015;45.378;20.360;2023-04-03T09:32:41;3.42;;;1.08;;
74541;SDS011;63015;45.378;20.360;2023-04-03T09:34:44;4.47;;;0.80;;
74541;SDS011;63015;45.378;20.360;2023-04-03T09:36:52;4.57;;;1.00;;
74541;SDS011;63015;45.378;20.360;2023-04-03T09:39:04;3.20;;;1.08;;
74541;SDS011;63015;45.378;20.360;2023-04-03T09:41:07;3.20;;;1.17;;
74541;SDS011;63015;45.378;20.360;2023-04-03T09:43:20;2.80;;;0.93;;
74541;SDS011;63015;45.378;20.360;2023-04-03T09:45:23;3.25;;;1.13;;
74541;SDS011;63015;45.378;20.360;2023-04-03T09:47:27;1.77;;;0.60;;
74541;SDS011;63015;45.378;20.360;2023-04-03T09:49:30;2.67;;;0.82;;
74541;SDS011;63015;45.378;20.360;2023-04-03T09:51:30;5.05;;;1.40;;
74541;SDS011;63015;45.378;20.360;2023-04-03T09:53:36;3.20;;;1.20;;
74541;SDS011;63015;45.378;20.360;2023-04-03T09:55:42;3.55;;;1.20;;
74541;SDS011;63015;45.378;20.360;2023-04-03T09:57:45;2.90;;;1.05;;
74541;SDS011;63015;45.378;20.360;2023-04-03T09:59:47;3.35;;;0.93;;
74541;SDS011;63015;45.378;20.360;2023-04-03T10:01:59;2.88;;;1.05;;
74541;SDS011;63015;45.378;20.360;2023-04-03T10:04:19;2.30;;;0.65;;
74541;SDS011;63015;45.378;20.360;2023-04-03T10:06:22;3.78;;;1.58;;
74541;SDS011;63015;45.378;20.360;2023-04-03T10:10:27;2.75;;;0.75;;
74541;SDS011;63015;45.378;20.360;2023-04-03T10:12:27;1.90;;;0.50;;
74541;SDS011;63015;45.378;20.360;2023-04-03T10:14:28;2.42;;;0.80;;
74541;SDS011;63015;45.378;20.360;2023-04-03T10:16:41;2.78;;;1.00;;
74541;SDS011;63015;45.378;20.360;2023-04-03T10:20:50;2.20;;;0.77;;
74541;SDS011;63015;45.378;20.360;2023-04-03T10:29:40;2.28;;;0.73;;
74541;SDS011;63015;45.378;20.360;2023-04-03T10:31:54;2.92;;;0.90;;
74541;SDS011;63015;45.378;20.360;2023-04-03T10:34:06;2.35;;;0.93;;
74541;SDS011;63015;45.378;20.360;2023-04-03T10:40:48;2.08;;;0.57;;
74541;SDS011;63015;45.378;20.360;2023-04-03T10:45:45;2.47;;;1.05;;
74541;SDS011;63015;45.378;20.360;2023-04-03T10:54:38;2.63;;;0.98;;
74541;SDS011;63015;45.378;20.360;2023-04-03T10:58:52;3.78;;;0.70;;
74541;SDS011;63015;45.378;20.360;2023-04-03T11:01:01;3.28;;;0.90;;
74541;SDS011;63015;45.378;20.360;2023-04-03T11:03:11;2.53;;;0.60;;
74541;SDS011;63015;45.378;20.360;2023-04-03T11:05:25;2.80;;;0.85;;
74541;SDS011;63015;45.378;20.360;2023-04-03T11:07:28;3.60;;;1.02;;
74541;SDS011;63015;45.378;20.360;2023-04-03T11:09:34;3.33;;;0.90;;
74541;SDS011;63015;45.378;20.360;2023-04-03T11:11:38;2.90;;;0.77;;
74541;SDS011;63015;45.378;20.360;2023-04-03T11:13:43;1.73;;;0.70;;
74541;SDS011;63015;45.378;20.360;2023-04-03T11:15:50;2.53;;;1.00;;
74541;SDS011;63015;45.378;20.360;2023-04-03T11:22:00;2.25;;;0.73;;
74541;SDS011;63015;45.378;20.360;2023-04-03T11:24:16;1.85;;;0.50;;
74541;SDS011;63015;45.378;20.360;2023-04-03T11:26:22;3.00;;;0.85;;
74541;SDS011;63015;45.378;20.360;2023-04-03T11:28:28;3.25;;;0.95;;
74541;SDS011;63015;45.378;20.360;2023-04-03T11:34:53;2.20;;;0.65;;
74541;SDS011;63015;45.378;20.360;2023-04-03T11:36:59;2.63;;;0.70;;
74541;SDS011;63015;45.378;20.360;2023-04-03T11:39:06;2.25;;;0.73;;
74541;SDS011;63015;45.378;20.360;2023-04-03T11:41:29;2.28;;;0.80;;
74541;SDS011;63015;45.378;20.360;2023-04-03T11:43:32;2.80;;;1.13;;
74541;SDS011;63015;45.378;20.360;2023-04-03T11:45:38;2.08;;;0.60;;
74541;SDS011;63015;45.378;20.360;2023-04-03T11:47:52;3.97;;;1.02;;
74541;SDS011;63015;45.378;20.360;2023-04-03T11:50:02;4.97;;;1.40;;
74541;SDS011;63015;45.378;20.360;2023-04-03T11:52:07;2.47;;;0.70;;
74541;SDS011;63015;45.378;20.360;2023-04-03T11:56:35;2.22;;;0.80;;
74541;SDS011;63015;45.378;20.360;2023-04-03T11:58:36;2.40;;;0.68;;
74541;SDS011;63015;45.378;20.360;2023-04-03T12:02:43;2.83;;;0.82;;
74541;SDS011;63015;45.378;20.360;2023-04-03T12:04:48;1.92;;;0.50;;
74541;SDS011;63015;45.378;20.360;2023-04-03T12:07:23;2.50;;;0.90;;
74541;SDS011;63015;45.378;20.360;2023-04-03T12:11:40;2.38;;;0.60;;
74541;SDS011;63015;45.378;20.360;2023-04-03T12:13:42;3.03;;;0.68;;
74541;SDS011;63015;45.378;20.360;2023-04-03T12:15:51;2.20;;;0.52;;
74541;SDS011;63015;45.378;20.360;2023-04-03T12:17:52;6.72;;;1.15;;
74541;SDS011;63015;45.378;20.360;2023-04-03T12:19:53;3.15;;;1.67;;
74541;SDS011;63015;45.378;20.360;2023-04-03T12:26:21;1.25;;;0.47;;
74541;SDS011;63015;45.378;20.360;2023-04-03T12:28:26;4.25;;;1.05;;
74541;SDS011;63015;45.378;20.360;2023-04-03T12:30:27;2.53;;;0.73;;
74541;SDS011;63015;45.378;20.360;2023-04-03T12:34:46;2.00;;;0.70;;
74541;SDS011;63015;45.378;20.360;2023-04-03T12:37:01;2.30;;;0.98;;
74541;SDS011;63015;45.378;20.360;2023-04-03T12:39:13;3.28;;;1.27;;
74541;SDS011;63015;45.378;20.360;2023-04-03T12:45:44;1.65;;;0.63;;
74541;SDS011;63015;45.378;20.360;2023-04-03T12:47:50;2.65;;;0.80;;
74541;SDS011;63015;45.378;20.360;2023-04-03T12:51:53;2.30;;;0.60;;
74541;SDS011;63015;45.378;20.360;2023-04-03T12:53:58;1.70;;;0.52;;
74541;SDS011;63015;45.378;20.360;2023-04-03T12:56:26;5.03;;;0.90;;
74541;SDS011;63015;45.378;20.360;2023-04-03T12:58:31;2.72;;;0.50;;
74541;SDS011;63015;45.378;20.360;2023-04-03T13:00:32;2.90;;;0.82;;
74541;SDS011;63015;45.378;20.360;2023-04-03T13:02:35;3.40;;;0.88;;
74541;SDS011;63015;45.378;20.360;2023-04-03T13:04:37;9.82;;;1.30;;
74541;SDS011;63015;45.378;20.360;2023-04-03T13:06:42;3.42;;;1.08;;
74541;SDS011;63015;45.378;20.360;2023-04-03T13:11:21;2.80;;;0.70;;
74541;SDS011;63015;45.378;20.360;2023-04-03T13:13:23;2.42;;;0.95;;
74541;SDS011;63015;45.378;20.360;2023-04-03T13:15:27;3.17;;;0.63;;
74541;SDS011;63015;45.378;20.360;2023-04-03T13:17:41;2.72;;;0.50;;
74541;SDS011;63015;45.378;20.360;2023-04-03T13:19:44;2.67;;;0.77;;
74541;SDS011;63015;45.378;20.360;2023-04-03T13:21:46;2.10;;;0.70;;
74541;SDS011;63015;45.378;20.360;2023-04-03T13:23:48;3.45;;;0.75;;
74541;SDS011;63015;45.378;20.360;2023-04-03T13:25:51;3.70;;;0.75;;
74541;SDS011;63015;45.378;20.360;2023-04-03T13:27:52;2.40;;;0.60;;
74541;SDS011;63015;45.378;20.360;2023-04-03T13:29:54;2.33;;;0.80;;
74541;SDS011;63015;45.378;20.360;2023-04-03T13:31:58;2.20;;;0.60;;
74541;SDS011;63015;45.378;20.360;2023-04-03T13:40:18;2.33;;;0.63;;
74541;SDS011;63015;45.378;20.360;2023-04-03T13:42:23;5.68;;;1.10;;
74541;SDS011;63015;45.378;20.360;2023-04-03T13:44:32;6.15;;;2.13;;
74541;SDS011;63015;45.378;20.360;2023-04-03T13:46:36;3.25;;;0.95;;
74541;SDS011;63015;45.378;20.360;2023-04-03T13:51:05;6.60;;;2.10;;
74541;SDS011;63015;45.378;20.360;2023-04-03T13:53:27;6.25;;;1.42;;